Time;durP1;ratioP1;P1;durP2;ratioP2;P2;SDS_P1;SDS_P2;PMS_P1;PMS_P2;Temp;Humidity;BMP_temperature;BMP_pressure;BME280_temperature;BME280_humidity;BME280_pressure;Samples;Min_cycle;Max_cycle;Signal;HPM_P1;HPM_P2
2022/08/02 00:00:09;;;;;;;6.60;3.40;;;14.30;99.90;;;;;;5103398;28;20252;-73
2022/08/02 00:02:36;;;;;;;6.13;3.53;;;14.20;99.90;;;;;;5099479;28;20265;-74
2022/08/02 00:05:04;;;;;;;9.20;3.67;;;14.20;99.90;;;;;;5103435;28;20644;-74
2022/08/02 00:07:31;;;;;;;5.40;3.10;;;14.20;99.90;;;;;;5099567;28;20207;-73
2022/08/02 00:10:06;;;;;;;4.87;3.20;;;14.20;99.90;;;;;;5104329;28;20203;-73
2022/08/02 00:12:33;;;;;;;6.87;3.00;;;14.20;99.90;;;;;;5100590;28;20203;-73
2022/08/02 00:15:00;;;;;;;5.17;3.20;;;14.30;99.90;;;;;;5103480;28;20267;-74
2022/08/02 00:17:27;;;;;;;5.03;3.20;;;14.30;99.90;;;;;;5100160;28;20227;-73
2022/08/02 00:19:54;;;;;;;9.00;3.10;;;14.40;99.90;;;;;;5102736;28;20655;-74
2022/08/02 00:22:20;;;;;;;5.53;3.37;;;14.40;99.90;;;;;;5102612;28;20203;-73
2022/08/02 00:24:47;;;;;;;6.40;3.20;;;14.40;99.90;;;;;;5098789;28;20264;-72
2022/08/02 00:27:14;;;;;;;4.20;2.70;;;14.40;99.90;;;;;;5105483;28;20311;-74
2022/08/02 00:29:41;;;;;;;6.70;2.97;;;14.40;99.90;;;;;;5100784;28;20195;-73
2022/08/02 00:32:19;;;;;;;6.70;3.50;;;14.40;99.90;;;;;;5107016;28;20230;-74
2022/08/02 00:34:46;;;;;;;4.77;2.50;;;14.40;99.90;;;;;;5097497;28;21122;-73
2022/08/02 00:37:13;;;;;;;6.43;2.83;;;14.50;99.90;;;;;;5100512;28;20195;-72
2022/08/02 00:39:41;;;;;;;5.97;2.90;;;14.50;99.90;;;;;;5102040;28;20219;-73
2022/08/02 00:42:09;;;;;;;6.47;3.03;;;14.50;99.90;;;;;;5103210;28;20207;-74
2022/08/02 00:44:37;;;;;;;5.90;2.83;;;14.50;99.90;;;;;;5107921;28;20643;-72
2022/08/02 00:47:04;;;;;;;4.27;2.50;;;14.50;99.90;;;;;;5107591;28;20238;-74
2022/08/02 00:49:31;;;;;;;5.77;2.87;;;14.50;99.90;;;;;;5100118;28;20202;-74
2022/08/02 00:51:59;;;;;;;5.30;3.90;;;14.50;99.90;;;;;;5105869;27;20247;-73
2022/08/02 00:54:26;;;;;;;3.80;2.77;;;14.50;99.90;;;;;;5096931;28;20204;-75
2022/08/02 00:56:53;;;;;;;4.13;3.20;;;14.40;99.90;;;;;;5103294;28;20199;-74
2022/08/02 00:59:20;;;;;;;5.07;3.17;;;14.40;99.90;;;;;;5103555;28;20195;-73
2022/08/02 01:01:47;;;;;;;8.57;4.03;;;14.30;99.90;;;;;;5106264;28;20260;-73
2022/08/02 01:04:25;;;;;;;7.30;4.00;;;14.30;99.90;;;;;;5101517;28;20301;-73
2022/08/02 01:06:59;;;;;;;7.00;4.00;;;14.20;99.90;;;;;;5102011;28;20241;-73
2022/08/02 01:09:27;;;;;;;5.93;3.90;;;14.10;99.90;;;;;;5098959;28;20751;-73
2022/08/02 01:11:54;;;;;;;5.50;3.57;;;14.10;99.90;;;;;;5096854;28;20227;-75
2022/08/02 01:14:23;;;;;;;6.57;3.50;;;14.00;99.90;;;;;;5098811;28;20248;-73
2022/08/02 01:17:05;;;;;;;4.97;3.27;;;14.00;99.90;;;;;;5103727;28;20221;-73
2022/08/02 01:19:51;;;;;;;5.83;3.97;;;13.90;99.90;;;;;;5100042;28;20206;-73
2022/08/02 01:22:20;;;;;;;7.47;3.40;;;13.90;99.90;;;;;;5097612;28;20263;-73
2022/08/02 01:25:44;;;;;;;8.13;3.87;;;13.90;99.90;;;;;;5105513;28;20286;-73
2022/08/02 01:28:42;;;;;;;5.57;3.83;;;13.90;99.90;;;;;;5101136;28;20226;-73
2022/08/02 01:31:33;;;;;;;8.80;4.00;;;13.80;99.90;;;;;;5098965;28;20215;-74
2022/08/02 01:34:04;;;;;;;8.07;4.47;;;13.80;99.90;;;;;;5097190;28;20216;-72
2022/08/02 01:36:38;;;;;;;5.47;3.63;;;13.80;99.90;;;;;;5102076;28;20260;-73
2022/08/02 01:39:10;;;;;;;6.47;3.80;;;13.80;99.90;;;;;;5100786;28;20711;-71
2022/08/02 01:41:55;;;;;;;6.73;3.70;;;13.80;99.90;;;;;;5103938;28;20662;-73
2022/08/02 01:44:26;;;;;;;5.90;3.93;;;13.70;99.90;;;;;;5099104;28;20203;-73
2022/08/02 01:46:57;;;;;;;6.77;4.00;;;13.70;99.90;;;;;;5097073;28;20639;-73
2022/08/02 01:49:28;;;;;;;4.70;4.20;;;13.70;99.90;;;;;;5099968;28;20676;-74
2022/08/02 01:54:47;;;;;;;6.43;4.30;;;13.60;99.90;;;;;;5104215;28;20266;-74
2022/08/02 01:57:15;;;;;;;5.30;4.10;;;13.60;99.90;;;;;;5099190;28;20304;-75
2022/08/02 01:59:45;;;;;;;8.00;4.37;;;13.60;99.90;;;;;;5102228;28;20219;-73
2022/08/02 02:02:14;;;;;;;5.63;4.50;;;13.70;99.90;;;;;;5100912;28;20238;-74
2022/08/02 02:04:42;;;;;;;8.60;5.47;;;13.70;99.90;;;;;;5097042;28;20283;-74
2022/08/02 02:07:12;;;;;;;9.27;5.13;;;13.60;99.90;;;;;;5107103;28;20226;-73
2022/08/02 02:09:39;;;;;;;8.77;5.20;;;13.60;99.90;;;;;;5103815;28;20750;-72
2022/08/02 02:12:18;;;;;;;5.43;4.63;;;13.50;99.90;;;;;;5100616;28;20222;-73
2022/08/02 02:14:46;;;;;;;5.93;4.60;;;13.50;99.90;;;;;;5102482;28;20502;-74
2022/08/02 02:17:22;;;;;;;9.33;5.17;;;13.40;99.90;;;;;;5098358;28;20240;-73
2022/08/02 02:20:15;;;;;;;8.33;4.83;;;13.40;99.90;;;;;;5098737;28;20663;-73
2022/08/02 02:22:42;;;;;;;9.10;5.20;;;13.40;99.90;;;;;;5096877;28;20205;-74
2022/08/02 02:25:11;;;;;;;8.63;5.57;;;13.40;99.90;;;;;;5106458;28;20310;-73
2022/08/02 02:27:48;;;;;;;9.53;4.67;;;13.40;99.90;;;;;;5097902;28;20427;-73
2022/08/02 02:30:16;;;;;;;9.27;4.87;;;13.40;99.90;;;;;;5102837;28;20275;-73
2022/08/02 02:32:44;;;;;;;8.60;4.87;;;13.40;99.90;;;;;;5102991;28;20288;-73
2022/08/02 02:35:15;;;;;;;11.50;5.50;;;13.40;99.90;;;;;;5099004;28;20280;-74
2022/08/02 02:37:43;;;;;;;8.13;5.07;;;13.40;99.90;;;;;;5097809;28;20274;-73
2022/08/02 02:40:11;;;;;;;9.00;4.73;;;13.40;99.90;;;;;;5104761;28;20226;-73
2022/08/02 02:42:40;;;;;;;6.37;5.13;;;13.30;99.90;;;;;;5108717;28;20298;-73
2022/08/02 02:45:17;;;;;;;6.97;4.73;;;13.30;99.90;;;;;;5098299;28;20296;-73
2022/08/02 02:47:45;;;;;;;7.07;5.80;;;13.30;99.90;;;;;;5106323;28;20581;-73
2022/08/02 02:50:13;;;;;;;6.93;5.13;;;13.20;99.90;;;;;;5099522;28;20211;-73
2022/08/02 02:52:40;;;;;;;7.23;5.37;;;13.20;99.90;;;;;;5099794;28;20715;-74
2022/08/02 02:55:08;;;;;;;8.57;4.67;;;13.20;99.90;;;;;;5099415;28;20211;-73
2022/08/02 02:57:36;;;;;;;7.83;5.00;;;13.20;99.90;;;;;;5107514;28;20294;-73
2022/08/02 03:00:07;;;;;;;6.97;4.60;;;13.20;99.90;;;;;;5096684;28;20225;-73
2022/08/02 03:02:36;;;;;;;7.03;4.10;;;13.10;99.90;;;;;;5100920;28;20747;-73
2022/08/02 03:05:07;;;;;;;7.17;5.07;;;13.10;99.90;;;;;;5102421;28;20199;-73
2022/08/02 03:07:34;;;;;;;9.83;5.47;;;13.10;99.90;;;;;;5100886;28;20202;-73
2022/08/02 03:10:06;;;;;;;7.03;5.23;;;13.10;99.90;;;;;;5098661;28;20206;-75
2022/08/02 03:12:35;;;;;;;9.03;4.80;;;13.10;99.90;;;;;;5094981;28;20231;-74
2022/08/02 03:15:05;;;;;;;6.37;4.80;;;13.10;99.90;;;;;;5099144;28;20202;-73
2022/08/02 03:17:43;;;;;;;9.13;4.80;;;13.10;99.90;;;;;;5098163;28;20591;-74
2022/08/02 03:20:15;;;;;;;8.67;5.07;;;13.10;99.90;;;;;;5095020;28;20741;-72
2022/08/02 03:22:43;;;;;;;8.67;4.90;;;13.20;99.90;;;;;;5097123;28;20203;-73
2022/08/02 03:25:12;;;;;;;10.13;5.40;;;13.20;99.90;;;;;;5097203;28;20346;-73
2022/08/02 03:27:39;;;;;;;7.53;4.73;;;13.20;99.90;;;;;;5100162;28;20234;-74
2022/08/02 03:30:09;;;;;;;6.07;4.87;;;13.20;99.90;;;;;;5101151;28;20203;-73
2022/08/02 03:32:38;;;;;;;6.93;4.13;;;13.20;99.90;;;;;;5101393;28;20231;-74
2022/08/02 03:35:09;;;;;;;9.23;4.80;;;13.20;99.90;;;;;;5101691;28;20239;-73
2022/08/02 03:37:36;;;;;;;7.37;5.10;;;13.20;99.90;;;;;;5100995;28;20252;-72
2022/08/02 03:40:09;;;;;;;5.37;4.87;;;13.30;99.90;;;;;;5100013;28;20227;-73
2022/08/02 03:42:38;;;;;;;8.00;4.50;;;13.30;99.90;;;;;;5106306;28;20241;-72
2022/08/02 03:45:07;;;;;;;9.40;5.07;;;13.30;99.90;;;;;;5104386;28;20721;-75
2022/08/02 03:47:37;;;;;;;9.97;5.13;;;13.30;99.90;;;;;;5105001;28;20215;-72
2022/08/02 03:50:07;;;;;;;8.13;5.23;;;13.30;99.90;;;;;;5107636;28;20202;-73
2022/08/02 03:52:34;;;;;;;13.20;5.83;;;13.40;99.90;;;;;;5101320;28;20322;-72
2022/08/02 03:55:01;;;;;;;6.93;4.97;;;13.40;99.90;;;;;;5104037;28;20292;-74
2022/08/02 03:57:28;;;;;;;6.43;5.40;;;13.40;99.90;;;;;;5096332;28;20204;-74
2022/08/02 03:59:55;;;;;;;9.07;5.53;;;13.50;99.90;;;;;;5103394;28;20537;-73
2022/08/02 04:02:22;;;;;;;9.73;5.17;;;13.50;99.90;;;;;;5099361;28;20223;-73
2022/08/02 04:04:49;;;;;;;11.57;5.53;;;13.50;99.90;;;;;;5101241;28;20204;-73
2022/08/02 04:07:16;;;;;;;11.30;5.63;;;13.50;99.90;;;;;;5107874;28;20207;-74
2022/08/02 04:10:03;;;;;;;7.30;4.87;;;13.50;99.90;;;;;;5099329;28;20282;-74
2022/08/02 04:12:30;;;;;;;11.03;6.03;;;13.60;99.90;;;;;;5100354;28;20276;-73
2022/08/02 04:14:58;;;;;;;7.53;5.70;;;13.60;99.90;;;;;;5099754;28;20575;-74
2022/08/02 04:17:30;;;;;;;10.90;5.93;;;13.60;99.90;;;;;;5108097;28;20242;-75
2022/08/02 04:20:10;;;;;;;10.90;5.57;;;13.60;99.90;;;;;;5101064;28;20330;-74
2022/08/02 04:23:03;;;;;;;9.27;5.60;;;13.60;99.90;;;;;;5103461;28;20212;-74
2022/08/02 04:25:31;;;;;;;19.07;6.00;;;13.70;99.90;;;;;;5097508;28;20546;-74
2022/08/02 04:28:07;;;;;;;10.13;6.13;;;13.70;99.90;;;;;;5098887;28;20191;-72
2022/08/02 04:30:44;;;;;;;9.57;5.80;;;13.70;99.90;;;;;;5098893;28;20264;-73
2022/08/02 04:33:11;;;;;;;11.50;6.40;;;13.80;99.90;;;;;;5099361;27;20219;-73
2022/08/02 04:35:38;;;;;;;12.77;6.10;;;13.90;99.90;;;;;;5096772;28;20264;-72
2022/08/02 04:38:05;;;;;;;9.93;6.83;;;13.90;99.90;;;;;;5101050;28;20607;-73
2022/08/02 04:40:37;;;;;;;10.10;6.70;;;14.00;99.90;;;;;;5104264;28;20238;-74
2022/08/02 04:43:04;;;;;;;10.53;6.73;;;14.00;99.90;;;;;;5105547;28;20195;-73
2022/08/02 04:45:32;;;;;;;11.50;6.77;;;14.10;99.90;;;;;;5099898;28;20196;-73
2022/08/02 04:47:58;;;;;;;13.37;7.00;;;14.10;99.90;;;;;;5099457;28;20224;-74
2022/08/02 04:50:33;;;;;;;12.20;6.30;;;14.20;99.90;;;;;;5093225;28;20683;-74
2022/08/02 04:53:00;;;;;;;11.00;6.90;;;14.20;99.90;;;;;;5101613;28;20676;-74
2022/08/02 04:55:27;;;;;;;9.17;6.60;;;14.20;99.90;;;;;;5094687;28;20196;-73
2022/08/02 04:57:56;;;;;;;12.47;6.47;;;14.30;99.90;;;;;;5098530;28;20207;-74
2022/08/02 05:00:24;;;;;;;12.83;6.17;;;14.30;99.90;;;;;;5104287;28;20195;-73
2022/08/02 05:02:52;;;;;;;10.83;7.07;;;14.40;99.90;;;;;;5104992;28;20227;-74
2022/08/02 05:05:18;;;;;;;14.07;6.43;;;14.40;99.90;;;;;;5095551;28;20276;-73
2022/08/02 05:07:45;;;;;;;9.27;6.70;;;14.50;99.90;;;;;;5095516;28;20728;-74
2022/08/02 05:10:12;;;;;;;15.20;7.13;;;14.50;99.90;;;;;;5096206;28;20717;-74
2022/08/02 05:12:39;;;;;;;9.43;6.93;;;14.60;99.90;;;;;;5096165;28;20254;-74
2022/08/02 05:15:07;;;;;;;13.63;8.20;;;14.70;99.90;;;;;;5093165;28;20204;-75
2022/08/02 05:17:39;;;;;;;8.30;6.70;;;14.80;99.90;;;;;;5103317;28;20225;-74
2022/08/02 05:20:15;;;;;;;13.87;7.43;;;14.80;99.90;;;;;;5091485;28;20559;-74
2022/08/02 05:22:43;;;;;;;12.43;7.37;;;14.90;99.90;;;;;;5095092;28;20215;-73
2022/08/02 05:25:10;;;;;;;11.50;7.73;;;15.00;99.90;;;;;;5095606;28;20196;-75
2022/08/02 05:27:37;;;;;;;9.77;7.00;;;15.10;99.90;;;;;;5094995;28;20285;-75
2022/08/02 05:30:04;;;;;;;11.87;7.10;;;15.20;99.90;;;;;;5099268;28;20210;-74
2022/08/02 05:32:32;;;;;;;10.90;7.80;;;15.30;99.90;;;;;;5103146;28;20677;-73
2022/08/02 05:35:01;;;;;;;14.00;7.40;;;15.50;99.90;;;;;;5095647;28;20250;-74
2022/08/02 05:37:28;;;;;;;10.93;7.23;;;15.60;99.90;;;;;;5099389;28;20203;-74
2022/08/02 05:39:58;;;;;;;12.00;7.80;;;15.60;99.90;;;;;;5103044;28;20591;-74
2022/08/02 05:42:30;;;;;;;10.90;6.70;;;15.80;99.90;;;;;;5096342;28;20214;-74
2022/08/02 05:44:57;;;;;;;9.77;6.73;;;15.80;99.90;;;;;;5096539;28;20195;-75
2022/08/02 05:47:24;;;;;;;12.40;7.40;;;16.00;99.90;;;;;;5099929;28;20215;-75
2022/08/02 05:49:51;;;;;;;8.90;7.40;;;16.10;99.90;;;;;;5102641;28;20191;-73
2022/08/02 05:52:20;;;;;;;11.37;6.60;;;16.30;99.90;;;;;;5097358;28;20262;-74
2022/08/02 05:54:49;;;;;;;10.23;6.70;;;16.50;99.90;;;;;;5100935;28;20658;-73
2022/08/02 05:57:33;;;;;;;9.85;6.93;;;16.70;99.90;;;;;;5098691;28;20256;-74
2022/08/02 06:00:12;;;;;;;13.55;5.90;;;17.20;99.90;;;;;;5097826;28;20210;-75
2022/08/02 06:02:55;;;;;;;11.35;6.03;;;18.00;99.90;;;;;;5097685;28;20618;-74
2022/08/02 06:05:24;;;;;;;8.18;5.65;;;18.70;99.90;;;;;;5099251;28;20366;-75
2022/08/02 06:07:54;;;;;;;8.93;5.40;;;19.20;99.90;;;;;;5096769;28;20236;-74
2022/08/02 06:10:21;;;;;;;7.45;5.25;;;19.60;99.90;;;;;;5094914;28;20199;-73
2022/08/02 06:12:53;;;;;;;7.53;5.13;;;20.20;99.90;;;;;;5100132;28;20320;-75
2022/08/02 06:15:19;;;;;;;7.68;4.38;;;21.10;99.90;;;;;;5098739;28;20841;-74
2022/08/02 06:17:47;;;;;;;5.95;4.50;;;21.90;99.90;;;;;;5101490;28;20288;-75
2022/08/02 06:20:17;;;;;;;5.18;4.15;;;22.50;99.90;;;;;;5100180;28;20647;-74
2022/08/02 06:22:44;;;;;;;7.43;4.40;;;23.10;99.90;;;;;;5096970;28;20251;-73
2022/08/02 06:25:13;;;;;;;9.52;4.40;;;23.40;99.90;;;;;;5097428;28;20206;-75
2022/08/02 06:28:02;;;;;;;7.03;4.25;;;23.30;99.90;;;;;;5094276;28;20211;-75
2022/08/02 06:30:30;;;;;;;8.10;4.60;;;22.90;99.90;;;;;;5102625;28;20286;-75
2022/08/02 06:32:59;;;;;;;8.82;4.35;;;22.70;99.90;;;;;;5099498;28;20231;-75
2022/08/02 06:35:40;;;;;;;7.80;4.65;;;22.90;99.90;;;;;;5094358;28;20215;-74
2022/08/02 06:38:09;;;;;;;9.73;4.57;;;23.50;99.90;;;;;;5099606;28;20218;-75
2022/08/02 06:40:54;;;;;;;11.30;4.93;;;24.10;99.90;;;;;;5099262;28;20242;-74
2022/08/02 06:43:26;;;;;;;8.77;4.80;;;24.50;99.90;;;;;;5094290;28;20195;-75
2022/08/02 06:45:53;;;;;;;11.15;4.43;;;24.90;99.90;;;;;;5096991;28;20207;-75
2022/08/02 06:48:40;;;;;;;9.20;4.13;;;25.40;99.90;;;;;;5094564;28;20701;-75
2022/08/02 06:51:07;;;;;;;8.23;5.00;;;25.90;99.90;;;;;;5099206;28;20610;-75
2022/08/02 06:53:33;;;;;;;9.18;4.53;;;26.20;99.90;;;;;;5096137;28;20315;-75
2022/08/02 06:56:00;;;;;;;6.95;4.28;;;26.40;99.90;;;;;;5098897;28;20192;-75
2022/08/02 06:58:27;;;;;;;7.25;4.20;;;26.70;99.90;;;;;;5096994;28;20257;-75
2022/08/02 07:00:54;;;;;;;10.73;5.03;;;27.30;99.90;;;;;;5102005;28;20575;-74
2022/08/02 07:03:20;;;;;;;8.88;4.70;;;27.80;99.90;;;;;;5102046;28;20591;-74
2022/08/02 07:05:47;;;;;;;8.00;3.80;;;28.30;99.90;;;;;;5097072;28;20719;-76
2022/08/02 07:08:15;;;;;;;6.65;3.90;;;28.60;99.90;;;;;;5097231;28;20736;-76
2022/08/02 07:10:41;;;;;;;7.95;4.03;;;29.00;99.90;;;;;;5099820;28;20208;-75
2022/08/02 07:13:09;;;;;;;5.32;3.33;;;29.30;99.90;;;;;;5103075;28;20651;-76
2022/08/02 07:15:38;;;;;;;6.50;3.70;;;29.60;99.90;;;;;;5101496;28;20700;-75
2022/08/02 07:18:16;;;;;;;4.32;3.10;;;29.70;99.30;;;;;;5102027;28;20264;-75
2022/08/02 07:20:43;;;;;;;5.72;3.03;;;29.90;98.90;;;;;;5100378;28;20257;-75
2022/08/02 07:23:09;;;;;;;5.50;3.28;;;30.10;98.30;;;;;;5103158;28;20211;-75
2022/08/02 07:25:37;;;;;;;7.97;3.22;;;30.40;97.50;;;;;;5098589;28;20294;-75
2022/08/02 07:28:24;;;;;;;6.65;3.00;;;30.40;96.80;;;;;;5097750;28;20208;-75
2022/08/02 07:30:51;;;;;;;7.80;3.72;;;30.30;96.60;;;;;;5095070;28;20200;-76
2022/08/02 07:33:18;;;;;;;6.03;2.85;;;30.10;96.60;;;;;;5101854;28;20242;-75
2022/08/02 07:36:05;;;;;;;6.03;2.70;;;30.30;96.60;;;;;;5106782;28;20322;-76
2022/08/02 07:38:34;;;;;;;4.90;3.30;;;30.40;96.60;;;;;;5097134;28;20269;-76
2022/08/02 07:41:03;;;;;;;7.85;2.95;;;30.50;96.10;;;;;;5100665;28;20351;-75
2022/08/02 07:43:30;;;;;;;5.13;2.80;;;30.50;95.70;;;;;;5100740;28;20569;-75
2022/08/02 07:45:57;;;;;;;6.60;2.63;;;30.60;95.60;;;;;;5094821;28;20468;-75
2022/08/02 07:48:26;;;;;;;5.78;2.83;;;30.60;95.60;;;;;;5100011;28;20728;-76
2022/08/02 07:50:53;;;;;;;5.88;2.47;;;30.60;95.70;;;;;;5100739;28;20335;-73
2022/08/02 07:53:20;;;;;;;3.72;2.40;;;30.70;95.20;;;;;;5100891;28;20324;-75
2022/08/02 07:56:07;;;;;;;5.20;2.30;;;31.00;94.80;;;;;;5099291;28;20250;-75
2022/08/02 07:58:33;;;;;;;5.45;2.50;;;31.30;94.50;;;;;;5101353;28;20203;-76
2022/08/02 08:01:00;;;;;;;6.55;2.50;;;31.50;93.80;;;;;;5100145;28;20235;-76
2022/08/02 08:03:27;;;;;;;3.20;1.88;;;31.70;93.00;;;;;;5099249;28;20596;-76
2022/08/02 08:05:54;;;;;;;3.45;1.90;;;31.60;92.70;;;;;;5095441;28;20243;-75
2022/08/02 08:08:21;;;;;;;3.35;1.85;;;31.70;92.10;;;;;;5101671;28;20204;-76
2022/08/02 08:10:48;;;;;;;3.78;2.05;;;31.80;91.40;;;;;;5099070;28;20304;-75
2022/08/02 08:13:15;;;;;;;3.60;1.70;;;31.70;90.60;;;;;;5095346;28;20219;-75
2022/08/02 08:15:42;;;;;;;4.70;1.85;;;31.80;90.50;;;;;;5095951;28;20234;-77
2022/08/02 08:18:18;;;;;;;4.13;1.73;;;31.90;90.00;;;;;;5096764;28;20685;-76
2022/08/02 08:20:45;;;;;;;3.00;2.03;;;32.00;90.00;;;;;;5097499;28;20263;-75
2022/08/02 08:23:12;;;;;;;4.00;2.50;;;32.20;89.80;;;;;;5103567;28;20215;-76
2022/08/02 08:25:39;;;;;;;5.97;2.08;;;32.20;89.10;;;;;;5097508;28;20300;-75
2022/08/02 08:28:07;;;;;;;3.60;2.13;;;32.20;89.40;;;;;;5099633;28;20708;-76
2022/08/02 08:30:33;;;;;;;4.85;2.42;;;32.10;89.20;;;;;;5098210;28;20587;-75
2022/08/02 08:33:00;;;;;;;4.55;2.40;;;32.00;89.60;;;;;;5097665;28;20239;-78
2022/08/02 08:35:27;;;;;;;5.25;2.35;;;31.80;90.20;;;;;;5100434;28;20203;-75
2022/08/02 08:37:54;;;;;;;4.50;2.83;;;31.80;90.60;;;;;;5101866;28;20206;-76
2022/08/02 08:40:23;;;;;;;2.72;2.40;;;31.80;90.80;;;;;;5095807;28;20316;-77
2022/08/02 08:42:50;;;;;;;3.97;2.22;;;32.00;91.10;;;;;;5093842;28;20195;-75
2022/08/02 08:45:17;;;;;;;5.25;2.20;;;32.20;90.80;;;;;;5101778;28;20200;-75
2022/08/02 08:47:54;;;;;;;5.43;2.40;;;32.20;90.50;;;;;;5100965;28;20608;-77
2022/08/02 08:50:24;;;;;;;4.00;2.33;;;32.40;90.30;;;;;;5102610;27;20253;-76
2022/08/02 08:53:06;;;;;;;3.25;2.08;;;32.60;90.00;;;;;;5096914;28;20228;-75
2022/08/02 08:55:35;;;;;;;2.85;2.42;;;32.60;89.60;;;;;;5098135;28;20239;-76
2022/08/02 08:58:03;;;;;;;3.40;2.40;;;32.60;89.70;;;;;;5098739;28;20208;-74
2022/08/02 09:00:32;;;;;;;4.55;2.53;;;32.70;89.30;;;;;;5102434;28;20352;-75
2022/08/02 09:03:02;;;;;;;3.83;2.40;;;32.30;88.80;;;;;;5096209;28;20597;-76
2022/08/02 09:05:29;;;;;;;3.05;2.50;;;32.00;89.70;;;;;;5096137;28;20253;-75
2022/08/02 09:07:56;;;;;;;3.50;2.50;;;31.50;90.20;;;;;;5099596;28;20607;-75
2022/08/02 09:10:43;;;;;;;3.85;2.28;;;31.30;90.50;;;;;;5096804;28;20208;-76
2022/08/02 09:13:21;;;;;;;4.53;2.88;;;31.10;90.90;;;;;;5093365;28;20231;-75
2022/08/02 09:16:08;;;;;;;4.10;2.40;;;30.80;91.20;;;;;;5096166;28;20575;-77
2022/08/02 09:18:44;;;;;;;5.60;2.75;;;30.70;91.60;;;;;;5099065;28;20685;-75
2022/08/02 09:21:13;;;;;;;3.78;2.55;;;30.80;91.40;;;;;;5095621;28;20333;-74
2022/08/02 09:23:48;;;;;;;4.47;2.22;;;30.80;90.60;;;;;;5100951;28;20291;-75
2022/08/02 09:26:17;;;;;;;5.32;2.40;;;30.80;88.80;;;;;;5098017;28;20212;-75
2022/08/02 09:28:46;;;;;;;4.82;2.08;;;30.80;88.50;;;;;;5098339;28;20290;-75
2022/08/02 09:31:17;;;;;;;3.35;2.13;;;30.70;87.40;;;;;;5093552;28;20329;-75
2022/08/02 09:33:49;;;;;;;3.75;2.10;;;30.80;87.90;;;;;;5100722;28;20247;-75
2022/08/02 09:36:16;;;;;;;2.42;2.17;;;30.70;86.80;;;;;;5095522;28;20211;-75
2022/08/02 09:38:56;;;;;;;4.20;2.30;;;30.60;85.90;;;;;;5098667;28;20238;-78
2022/08/02 09:41:26;;;;;;;3.33;2.15;;;30.60;87.40;;;;;;5093835;28;20592;-74
2022/08/02 09:43:54;;;;;;;4.95;2.65;;;30.40;88.50;;;;;;5097317;28;20202;-75
2022/08/02 09:46:38;;;;;;;3.58;2.28;;;30.40;89.40;;;;;;5093745;28;20659;-75
2022/08/02 09:49:16;;;;;;;3.78;3.08;;;30.30;90.10;;;;;;5098929;28;20224;-76
2022/08/02 09:51:46;;;;;;;4.35;3.00;;;30.20;90.40;;;;;;5099718;28;20195;-74
2022/08/02 09:54:25;;;;;;;3.10;2.40;;;30.10;90.90;;;;;;5101765;28;20268;-76
2022/08/02 09:56:53;;;;;;;3.28;2.33;;;30.20;91.40;;;;;;5097039;28;20208;-75
2022/08/02 09:59:25;;;;;;;6.10;3.05;;;30.30;91.70;;;;;;5095325;28;20683;-75
2022/08/02 10:01:54;;;;;;;3.30;2.78;;;30.40;91.80;;;;;;5097310;28;20199;-75
2022/08/02 10:04:30;;;;;;;3.97;2.85;;;30.40;91.40;;;;;;5098784;28;20290;-76
2022/08/02 10:07:07;;;;;;;3.63;2.20;;;30.20;91.70;;;;;;5096801;28;20211;-74
2022/08/02 10:09:34;;;;;;;5.18;2.70;;;30.20;91.50;;;;;;5099027;28;20256;-75
2022/08/02 10:12:09;;;;;;;3.92;2.88;;;30.30;91.50;;;;;;5098272;28;20204;-75
2022/08/02 10:14:37;;;;;;;4.68;2.85;;;30.30;91.90;;;;;;5101854;28;20802;-74
2022/08/02 10:17:06;;;;;;;4.53;3.25;;;30.40;92.00;;;;;;5099698;28;20215;-75
2022/08/02 10:19:35;;;;;;;6.05;3.30;;;30.30;91.60;;;;;;5101036;28;20207;-76
2022/08/02 10:22:24;;;;;;;6.13;3.97;;;30.10;91.90;;;;;;5100160;28;20203;-75
2022/08/02 10:24:51;;;;;;;5.15;3.28;;;30.00;92.70;;;;;;5101267;28;20370;-75
2022/08/02 10:27:19;;;;;;;3.65;3.15;;;30.10;92.70;;;;;;5096092;28;20215;-73
2022/08/02 10:29:49;;;;;;;6.25;2.53;;;30.20;92.60;;;;;;5098336;28;20647;-75
2022/08/02 10:32:35;;;;;;;7.10;3.30;;;30.20;92.30;;;;;;5102207;28;20729;-74
2022/08/02 10:35:09;;;;;;;4.20;3.35;;;30.30;92.30;;;;;;5095564;28;20220;-76
2022/08/02 10:38:02;;;;;;;4.20;2.90;;;30.10;92.10;;;;;;5102408;28;20198;-74
2022/08/02 10:40:49;;;;;;;3.72;2.97;;;30.00;92.40;;;;;;5102076;28;20713;-76
2022/08/02 10:43:34;;;;;;;4.45;3.67;;;29.70;92.60;;;;;;5097289;28;20516;-74
2022/08/02 10:46:20;;;;;;;3.78;3.10;;;29.40;92.60;;;;;;5105051;28;20627;-75
2022/08/02 10:49:20;;;;;;;5.28;3.50;;;29.10;93.10;;;;;;5104960;28;20268;-75
2022/08/02 10:52:07;;;;;;;4.10;2.78;;;28.90;93.40;;;;;;5071678;28;20207;-75
2022/08/02 10:54:39;;;;;;;4.82;3.05;;;29.00;93.70;;;;;;5098810;28;20223;-76
2022/08/02 10:57:21;;;;;;;5.65;3.45;;;29.30;93.70;;;;;;5098979;28;20207;-74
2022/08/02 11:00:08;;;;;;;3.88;2.95;;;29.60;93.70;;;;;;5100104;28;20196;-75
2022/08/02 11:02:45;;;;;;;6.13;3.30;;;29.60;93.80;;;;;;5095940;28;20226;-75
2022/08/02 11:05:15;;;;;;;3.92;3.13;;;29.60;93.80;;;;;;5104533;28;20209;-75
2022/08/02 11:07:47;;;;;;;3.50;3.03;;;29.60;93.50;;;;;;5099169;28;20200;-74
2022/08/02 11:10:32;;;;;;;3.88;3.13;;;29.50;93.60;;;;;;5098462;28;20553;-75
2022/08/02 11:13:03;;;;;;;3.53;3.17;;;29.60;93.90;;;;;;5098701;28;20203;-74
2022/08/02 11:15:50;;;;;;;4.13;3.42;;;29.70;93.40;;;;;;5092902;28;20192;-73
2022/08/02 11:18:18;;;;;;;5.13;3.10;;;29.50;93.40;;;;;;5097728;28;20230;-73
2022/08/02 11:20:45;;;;;;;5.60;2.78;;;29.60;93.70;;;;;;5103748;28;20203;-74
2022/08/02 11:23:35;;;;;;;6.70;3.58;;;29.70;93.70;;;;;;5108786;27;20245;-74
2022/08/02 11:26:29;;;;;;;7.65;3.92;;;30.00;93.80;;;;;;5105800;28;20748;-74
2022/08/02 11:28:57;;;;;;;3.85;2.85;;;30.00;93.40;;;;;;5104088;28;20211;-73
2022/08/02 11:31:24;;;;;;;3.30;2.90;;;30.10;93.40;;;;;;5105893;27;20251;-75
2022/08/02 11:33:51;;;;;;;3.30;2.95;;;30.20;93.30;;;;;;5104236;27;20250;-73
2022/08/02 11:36:19;;;;;;;3.60;2.90;;;30.20;92.90;;;;;;5106734;27;20264;-74
2022/08/02 11:38:48;;;;;;;3.95;2.70;;;30.40;93.00;;;;;;5103836;28;20202;-75
2022/08/02 11:41:19;;;;;;;3.78;2.80;;;30.60;93.20;;;;;;5103724;27;20219;-74
2022/08/02 11:44:06;;;;;;;6.45;3.33;;;30.70;93.10;;;;;;5105403;28;20262;-73
2022/08/02 11:46:33;;;;;;;4.85;3.00;;;30.80;92.70;;;;;;5102851;28;20727;-75
2022/08/02 11:49:17;;;;;;;5.38;2.90;;;31.00;92.40;;;;;;5107337;28;20219;-75
2022/08/02 11:52:05;;;;;;;4.47;3.00;;;31.00;92.00;;;;;;5104200;28;20195;-74
2022/08/02 11:54:34;;;;;;;4.68;2.85;;;31.00;91.50;;;;;;5103701;28;20339;-74
2022/08/02 11:57:14;;;;;;;4.22;2.40;;;30.90;91.80;;;;;;5102521;28;20437;-74
2022/08/02 11:59:48;;;;;;;3.38;2.50;;;30.90;91.80;;;;;;5106556;28;20787;-75
2022/08/02 12:02:16;;;;;;;4.88;2.80;;;30.80;91.30;;;;;;5105522;28;20347;-75
2022/08/02 12:04:51;;;;;;;5.13;2.40;;;30.80;91.60;;;;;;5107412;28;20634;-75
2022/08/02 12:07:32;;;;;;;2.15;1.95;;;30.80;91.50;;;;;;5104254;28;20213;-74
2022/08/02 12:10:06;;;;;;;3.38;2.08;;;30.90;91.60;;;;;;5107525;28;20309;-74
2022/08/02 12:12:49;;;;;;;3.22;2.25;;;31.00;91.60;;;;;;5107364;28;20272;-75
2022/08/02 12:15:43;;;;;;;2.85;1.98;;;31.00;91.60;;;;;;5105556;28;20226;-75
2022/08/02 12:20:58;;;;;;;2.63;2.42;;;31.00;91.30;;;;;;5100888;27;20742;-76
2022/08/02 12:23:25;;;;;;;4.32;2.72;;;30.90;91.40;;;;;;5105788;27;20646;-74
2022/08/02 12:26:08;;;;;;;3.67;3.00;;;31.00;91.50;;;;;;5110522;27;20665;-76
2022/08/02 12:28:42;;;;;;;3.60;2.30;;;31.10;91.40;;;;;;5105017;27;20227;-75
2022/08/02 12:31:12;;;;;;;3.47;2.60;;;31.10;91.40;;;;;;5103357;27;20203;-75
2022/08/02 12:33:57;;;;;;;3.08;2.47;;;31.30;91.70;;;;;;5106473;27;20336;-74
2022/08/02 12:36:29;;;;;;;2.85;2.45;;;31.30;91.20;;;;;;5107982;27;20203;-75
2022/08/02 12:39:01;;;;;;;3.17;2.00;;;31.30;91.30;;;;;;5103510;27;20244;-77
2022/08/02 12:41:28;;;;;;;3.90;2.22;;;31.10;90.80;;;;;;5100998;27;20250;-74
2022/08/02 12:43:58;;;;;;;3.05;2.40;;;31.10;91.00;;;;;;5101729;27;20257;-75
2022/08/02 12:46:26;;;;;;;4.93;2.60;;;31.30;91.30;;;;;;5104514;27;20252;-74
2022/08/02 12:48:53;;;;;;;3.67;2.70;;;31.40;91.00;;;;;;5106745;27;20298;-74
2022/08/02 12:51:40;;;;;;;2.40;2.20;;;31.50;90.70;;;;;;5104917;27;20572;-76
2022/08/02 12:54:38;;;;;;;2.55;2.00;;;31.60;90.20;;;;;;5104340;27;20257;-74
2022/08/02 12:57:12;;;;;;;2.47;2.28;;;31.90;89.90;;;;;;5102916;27;20558;-75
2022/08/02 12:59:41;;;;;;;2.30;1.90;;;31.90;88.80;;;;;;5103707;27;20624;-74
2022/08/02 13:02:10;;;;;;;1.95;1.75;;;31.90;88.40;;;;;;5103935;27;20306;-75
2022/08/02 13:04:38;;;;;;;2.40;1.90;;;31.90;87.30;;;;;;5106501;27;20199;-75
2022/08/02 13:07:05;;;;;;;2.28;1.77;;;32.00;86.30;;;;;;5099878;27;20681;-74
2022/08/02 13:09:39;;;;;;;2.25;1.90;;;31.90;85.20;;;;;;5099520;28;20199;-76
2022/08/02 13:12:07;;;;;;;1.88;1.63;;;31.60;84.30;;;;;;5097677;27;20297;-73
2022/08/02 13:14:34;;;;;;;4.13;2.00;;;31.40;84.40;;;;;;5106160;27;20258;-73